Time;durP1;ratioP1;P1;durP2;ratioP2;P2;SDS_P1;SDS_P2;PMS_P1;PMS_P2;Temp;Humidity;BMP_temperature;BMP_pressure;BME280_temperature;BME280_humidity;BME280_pressure;Samples;Min_cycle;Max_cycle;Signal;HPM_P1;HPM_P2
2023/05/15 00:01:50;;;;;;;9.43;6.93;;;11.70;99.90;;;;;;5094609;28;20676;-61
2023/05/15 00:04:15;;;;;;;7.80;6.82;;;11.60;99.90;;;;;;5076497;28;20205;-61
2023/05/15 00:06:41;;;;;;;9.02;6.95;;;11.60;99.90;;;;;;5094637;28;20220;-62
2023/05/15 00:09:07;;;;;;;7.85;6.20;;;11.70;99.90;;;;;;5076363;28;20173;-61
2023/05/15 00:11:33;;;;;;;7.15;6.40;;;11.70;99.90;;;;;;5094920;28;20180;-62
2023/05/15 00:13:59;;;;;;;9.23;6.40;;;11.70;99.90;;;;;;5093123;28;20181;-62
2023/05/15 00:16:25;;;;;;;7.72;6.60;;;11.60;99.90;;;;;;5095133;28;20193;-62
2023/05/15 00:18:50;;;;;;;8.15;6.55;;;11.50;99.90;;;;;;5093195;28;20712;-62
2023/05/15 00:21:16;;;;;;;8.93;6.78;;;11.50;99.90;;;;;;5094906;28;20649;-62
2023/05/15 00:23:42;;;;;;;7.50;6.80;;;11.60;99.90;;;;;;5094939;28;20551;-62
2023/05/15 00:26:08;;;;;;;9.45;7.10;;;11.50;99.90;;;;;;5094203;28;20189;-62
2023/05/15 00:28:33;;;;;;;9.07;6.63;;;11.50;99.90;;;;;;5094254;28;20252;-62
2023/05/15 00:30:59;;;;;;;8.57;6.95;;;11.40;99.90;;;;;;5094262;28;20201;-62
2023/05/15 00:33:25;;;;;;;10.13;6.97;;;11.30;99.90;;;;;;5094830;28;20180;-62
2023/05/15 00:35:50;;;;;;;10.52;7.28;;;11.20;99.90;;;;;;5092866;28;20188;-63
2023/05/15 00:38:16;;;;;;;7.95;6.70;;;11.20;99.90;;;;;;5094527;28;20735;-62
2023/05/15 00:40:43;;;;;;;7.93;6.95;;;11.20;99.90;;;;;;5094168;28;20649;-61
2023/05/15 00:43:10;;;;;;;7.22;6.45;;;11.20;99.90;;;;;;5093934;28;20208;-63
2023/05/15 00:45:37;;;;;;;7.60;6.57;;;11.20;99.90;;;;;;5094201;28;20615;-63
2023/05/15 00:48:06;;;;;;;7.43;6.65;;;11.30;99.90;;;;;;5094135;28;20184;-64
2023/05/15 00:50:32;;;;;;;6.90;6.20;;;11.40;99.90;;;;;;5094458;28;20651;-65
2023/05/15 00:52:59;;;;;;;9.82;7.03;;;11.40;99.90;;;;;;5094044;28;20173;-65
2023/05/15 00:55:26;;;;;;;7.65;6.68;;;11.40;99.90;;;;;;5093714;28;20196;-65
2023/05/15 00:57:53;;;;;;;8.48;7.07;;;11.40;99.90;;;;;;5093714;28;20243;-65
2023/05/15 01:00:19;;;;;;;8.98;6.78;;;11.30;99.90;;;;;;5094241;28;20185;-61
2023/05/15 01:02:45;;;;;;;10.23;7.38;;;11.20;99.90;;;;;;5094826;28;20639;-63
2023/05/15 01:05:11;;;;;;;7.82;7.03;;;11.20;99.90;;;;;;5094770;28;20188;-63
2023/05/15 01:07:45;;;;;;;8.00;7.15;;;11.20;99.90;;;;;;5093900;28;20698;-61
2023/05/15 01:10:11;;;;;;;9.35;7.20;;;11.10;99.90;;;;;;5094956;28;20162;-63
2023/05/15 01:12:40;;;;;;;7.45;6.72;;;11.10;99.90;;;;;;5093540;28;20612;-65
2023/05/15 01:15:06;;;;;;;7.78;6.78;;;10.90;99.90;;;;;;5092199;28;20211;-65
2023/05/15 01:17:32;;;;;;;8.15;7.35;;;11.00;99.90;;;;;;5092254;28;20216;-65
2023/05/15 01:19:59;;;;;;;7.68;6.88;;;11.10;99.90;;;;;;5093655;28;20625;-65
2023/05/15 01:22:29;;;;;;;8.88;7.32;;;11.10;99.90;;;;;;5093447;28;20173;-65
2023/05/15 01:24:59;;;;;;;9.02;7.40;;;11.00;99.90;;;;;;5092181;28;20686;-65
2023/05/15 01:27:33;;;;;;;9.27;7.65;;;10.90;99.90;;;;;;5094441;28;20556;-63
2023/05/15 01:30:07;;;;;;;8.65;7.10;;;10.70;99.90;;;;;;5095429;28;20206;-63
2023/05/15 01:32:47;;;;;;;8.70;6.75;;;10.60;99.90;;;;;;5095604;28;20193;-63
2023/05/15 01:35:27;;;;;;;7.85;7.05;;;10.60;99.90;;;;;;5094358;28;20290;-63
2023/05/15 01:38:18;;;;;;;9.95;7.13;;;10.60;99.90;;;;;;5093257;28;20250;-63
2023/05/15 01:40:46;;;;;;;9.25;7.47;;;10.50;99.90;;;;;;5095859;28;20169;-63
2023/05/15 01:43:17;;;;;;;7.78;6.97;;;10.40;99.90;;;;;;5093813;28;20200;-63
2023/05/15 01:45:43;;;;;;;8.40;7.53;;;10.50;99.90;;;;;;5093705;28;20544;-63
2023/05/15 01:48:12;;;;;;;9.60;7.78;;;10.60;99.90;;;;;;5094174;28;20185;-63
2023/05/15 01:50:39;;;;;;;8.48;6.65;;;10.50;99.90;;;;;;5094791;28;20177;-63
2023/05/15 01:56:44;;;;;;;11.32;7.88;;;10.50;99.90;;;;;;5093079;28;20247;-61
2023/05/15 01:59:12;;;;;;;10.38;6.95;;;10.30;99.90;;;;;;5092481;28;20205;-63
2023/05/15 02:01:39;;;;;;;8.00;7.20;;;10.20;99.90;;;;;;5093827;28;20197;-63
2023/05/15 02:04:05;;;;;;;7.18;6.40;;;10.10;99.90;;;;;;5094806;28;20200;-63
2023/05/15 02:06:32;;;;;;;8.13;7.30;;;10.00;99.90;;;;;;5076863;28;20201;-61
2023/05/15 02:09:01;;;;;;;8.05;6.88;;;9.90;99.90;;;;;;5072916;28;20178;-61
2023/05/15 02:11:27;;;;;;;9.23;6.72;;;9.90;99.90;;;;;;5072688;28;20212;-62
2023/05/15 02:13:55;;;;;;;8.57;6.53;;;10.00;99.90;;;;;;5072747;28;20701;-61
2023/05/15 02:16:21;;;;;;;9.82;6.93;;;9.90;99.90;;;;;;5072699;28;20240;-61
2023/05/15 02:18:48;;;;;;;8.35;7.10;;;9.90;99.90;;;;;;5072947;28;20178;-61
2023/05/15 02:21:15;;;;;;;8.07;7.28;;;9.90;99.90;;;;;;5054726;28;20561;-61
2023/05/15 02:23:40;;;;;;;7.75;6.95;;;9.90;99.90;;;;;;5058166;28;20198;-61
2023/05/15 02:26:30;;;;;;;8.27;7.43;;;9.80;99.90;;;;;;5076238;28;20245;-61
2023/05/15 02:29:35;;;;;;;9.40;7.40;;;9.90;99.90;;;;;;5058517;28;20196;-61
2023/05/15 02:32:26;;;;;;;8.77;7.40;;;9.90;99.90;;;;;;5035700;28;20186;-65
2023/05/15 02:35:11;;;;;;;9.85;8.02;;;9.80;99.90;;;;;;5058399;28;20166;-65
2023/05/15 02:37:39;;;;;;;10.98;7.90;;;9.70;99.90;;;;;;5076581;28;20190;-65
2023/05/15 02:40:10;;;;;;;9.48;8.10;;;9.70;99.90;;;;;;5076407;28;20240;-65
2023/05/15 02:42:38;;;;;;;8.50;7.60;;;9.50;99.90;;;;;;5076061;28;20190;-65
2023/05/15 02:45:06;;;;;;;9.82;7.57;;;9.50;99.90;;;;;;5058209;28;20182;-65
2023/05/15 02:47:33;;;;;;;10.02;8.00;;;9.50;99.90;;;;;;5058069;28;20194;-65
2023/05/15 02:50:00;;;;;;;8.50;7.60;;;9.50;99.90;;;;;;5076076;28;20261;-65
2023/05/15 02:52:26;;;;;;;8.82;7.75;;;9.50;99.90;;;;;;5076340;28;20168;-65
2023/05/15 02:54:52;;;;;;;10.98;7.78;;;9.50;99.90;;;;;;5075884;28;20620;-64
2023/05/15 02:57:17;;;;;;;8.15;7.35;;;9.50;99.90;;;;;;5057846;28;20204;-65
2023/05/15 02:59:44;;;;;;;10.00;7.33;;;9.50;99.90;;;;;;5075803;28;20260;-64
2023/05/15 03:02:09;;;;;;;8.15;7.35;;;9.40;99.90;;;;;;5075689;28;20169;-65
2023/05/15 03:04:35;;;;;;;8.90;7.07;;;9.40;99.90;;;;;;5057684;28;20557;-64
2023/05/15 03:07:01;;;;;;;12.48;7.97;;;9.40;99.90;;;;;;5057808;28;20190;-65
2023/05/15 03:09:27;;;;;;;8.87;7.97;;;9.50;99.90;;;;;;5075640;28;20516;-64
2023/05/15 03:11:53;;;;;;;8.30;7.43;;;9.60;99.90;;;;;;5075996;28;20677;-64
2023/05/15 03:14:18;;;;;;;7.93;7.13;;;9.70;99.90;;;;;;5057664;28;20177;-65
2023/05/15 03:16:44;;;;;;;10.48;8.20;;;9.70;99.90;;;;;;5075505;28;20197;-65
2023/05/15 03:19:12;;;;;;;10.35;7.70;;;9.70;99.90;;;;;;5057594;28;20177;-64
2023/05/15 03:25:00;;;;;;;9.70;7.13;;;9.60;99.90;;;;;;5108895;22;20652;-82
2023/05/15 03:27:27;;;;;;;11.07;7.72;;;9.40;99.90;;;;;;5084799;28;20169;-82
2023/05/15 03:29:53;;;;;;;9.68;7.18;;;9.40;99.90;;;;;;5084099;28;20173;-82
2023/05/15 03:32:18;;;;;;;9.20;8.07;;;9.40;99.90;;;;;;5122917;28;20179;-83
2023/05/15 03:34:44;;;;;;;11.40;7.80;;;9.30;99.90;;;;;;5103465;28;20512;-82
2023/05/15 03:37:10;;;;;;;8.20;7.40;;;9.30;99.90;;;;;;5104425;28;20173;-82
2023/05/15 03:39:35;;;;;;;9.20;7.27;;;9.20;99.90;;;;;;5104201;28;20198;-83
2023/05/15 03:42:02;;;;;;;8.65;7.43;;;9.30;99.90;;;;;;5122420;28;20207;-83
2023/05/15 03:44:28;;;;;;;10.77;8.50;;;9.30;99.90;;;;;;5123127;28;20211;-83
2023/05/15 03:46:54;;;;;;;15.18;9.15;;;9.30;99.90;;;;;;5102375;28;20248;-82
2023/05/15 03:49:19;;;;;;;12.97;8.77;;;9.30;99.90;;;;;;5101616;28;20176;-83
2023/05/15 03:51:45;;;;;;;10.13;8.50;;;9.20;99.90;;;;;;5123485;28;20204;-82
2023/05/15 03:54:11;;;;;;;9.20;8.30;;;9.20;99.90;;;;;;5123068;28;20176;-83
2023/05/15 03:56:37;;;;;;;9.30;8.05;;;9.10;99.90;;;;;;5104484;28;20184;-83
2023/05/15 03:59:03;;;;;;;9.68;7.93;;;9.00;99.90;;;;;;5122990;28;20253;-83
2023/05/15 04:01:28;;;;;;;7.55;6.85;;;8.90;99.90;;;;;;5122632;28;20207;-83
2023/05/15 04:03:54;;;;;;;11.77;6.88;;;8.90;99.90;;;;;;5123078;28;20200;-83
2023/05/15 04:06:21;;;;;;;9.17;7.40;;;8.80;99.90;;;;;;5123603;28;20222;-83
2023/05/15 04:08:48;;;;;;;10.00;7.22;;;8.80;99.90;;;;;;5123720;28;20209;-83
2023/05/15 04:11:13;;;;;;;9.70;7.20;;;8.80;99.90;;;;;;5117975;28;20190;-83
2023/05/15 04:13:39;;;;;;;7.97;7.13;;;8.80;99.90;;;;;;5099733;28;20187;-83
2023/05/15 04:16:06;;;;;;;8.83;7.90;;;8.80;99.90;;;;;;5117771;28;20251;-83
2023/05/15 04:18:31;;;;;;;8.77;7.87;;;8.80;99.90;;;;;;5100306;28;20222;-83
2023/05/15 04:20:57;;;;;;;9.93;7.90;;;8.90;99.90;;;;;;5119256;28;20196;-82
2023/05/15 04:23:23;;;;;;;8.50;7.60;;;9.00;99.90;;;;;;5120037;28;20211;-83
2023/05/15 04:25:48;;;;;;;10.27;8.10;;;9.00;99.90;;;;;;5121075;28;20238;-83
2023/05/15 04:28:15;;;;;;;11.90;8.37;;;9.20;99.90;;;;;;5102629;28;20172;-83
2023/05/15 04:30:40;;;;;;;8.77;7.83;;;9.30;99.90;;;;;;5121332;28;20263;-83
2023/05/15 04:33:06;;;;;;;10.50;8.37;;;9.40;99.90;;;;;;5120113;28;20199;-83
2023/05/15 04:35:32;;;;;;;9.75;8.52;;;9.50;99.90;;;;;;5099528;28;20652;-83
2023/05/15 04:37:58;;;;;;;13.40;9.83;;;9.50;99.90;;;;;;5096538;28;20548;-82
2023/05/15 04:40:24;;;;;;;13.07;11.03;;;9.60;99.90;;;;;;5108822;28;20247;-82
2023/05/15 04:42:49;;;;;;;16.67;11.37;;;9.70;99.90;;;;;;5117177;28;20192;-83
2023/05/15 04:45:15;;;;;;;15.77;11.63;;;9.80;99.90;;;;;;5106055;28;20169;-82
2023/05/15 04:47:41;;;;;;;22.40;13.18;;;9.90;99.90;;;;;;5117258;28;20172;-82
2023/05/15 04:50:08;;;;;;;20.93;13.13;;;10.00;99.90;;;;;;5117916;28;20174;-82
2023/05/15 04:52:33;;;;;;;20.95;14.95;;;10.00;99.90;;;;;;5116908;28;20152;-83
2023/05/15 04:54:59;;;;;;;23.90;14.68;;;10.10;99.90;;;;;;5097917;28;20179;-83
2023/05/15 04:57:25;;;;;;;26.87;16.10;;;10.20;99.90;;;;;;5117462;28;20251;-82
2023/05/15 04:59:51;;;;;;;29.93;17.20;;;10.30;99.90;;;;;;5097895;28;20176;-82
2023/05/15 05:02:23;;;;;;;31.10;16.97;;;10.40;99.90;;;;;;5117091;28;20511;-82
2023/05/15 05:04:49;;;;;;;36.17;18.70;;;10.40;99.90;;;;;;5117497;28;20172;-82
2023/05/15 05:07:15;;;;;;;32.07;19.17;;;10.50;99.90;;;;;;5116646;28;20172;-82
2023/05/15 05:09:41;;;;;;;36.97;19.23;;;10.60;99.90;;;;;;5115687;28;20168;-82
2023/05/15 05:12:08;;;;;;;49.78;22.10;;;10.60;99.90;;;;;;5097317;28;20188;-82
2023/05/15 05:14:34;;;;;;;38.72;19.65;;;10.70;99.90;;;;;;5115341;28;20168;-82
2023/05/15 05:17:00;;;;;;;46.10;22.42;;;10.80;99.90;;;;;;5097321;28;20183;-83
2023/05/15 05:19:27;;;;;;;46.67;21.75;;;10.90;99.90;;;;;;5097110;28;20263;-82
2023/05/15 05:21:53;;;;;;;50.00;23.83;;;10.90;99.90;;;;;;5115819;28;20194;-82
2023/05/15 05:24:18;;;;;;;53.05;24.67;;;11.00;99.90;;;;;;5098610;28;20214;-83
2023/05/15 05:26:44;;;;;;;43.85;22.15;;;11.00;99.90;;;;;;5116570;28;20165;-83
2023/05/15 05:29:10;;;;;;;51.35;25.58;;;11.10;99.90;;;;;;5116432;28;20168;-83
2023/05/15 05:31:36;;;;;;;50.70;25.60;;;11.10;99.90;;;;;;5117284;28;20249;-83
2023/05/15 05:34:02;;;;;;;45.63;23.75;;;11.20;99.90;;;;;;5116157;28;20183;-83
2023/05/15 05:36:27;;;;;;;50.45;25.13;;;11.30;99.90;;;;;;5097830;28;20217;-81
2023/05/15 05:38:53;;;;;;;50.83;24.98;;;11.40;99.90;;;;;;5117014;28;20232;-91
2023/05/15 05:41:20;;;;;;;50.95;26.35;;;11.50;99.90;;;;;;5097246;28;20211;-89
2023/05/15 05:43:46;;;;;;;49.97;25.05;;;11.60;99.90;;;;;;5097436;28;20264;-89
2023/05/15 05:46:12;;;;;;;39.58;22.63;;;11.70;99.90;;;;;;5097940;28;20603;-89
2023/05/15 05:48:37;;;;;;;62.95;30.35;;;11.90;99.90;;;;;;5097998;28;20549;-89
2023/05/15 05:51:03;;;;;;;63.95;32.42;;;12.00;99.90;;;;;;5097924;28;20196;-84
2023/05/15 05:53:29;;;;;;;73.25;35.00;;;12.10;99.90;;;;;;5101718;28;20185;-83
2023/05/15 05:55:55;;;;;;;67.82;35.40;;;12.10;99.90;;;;;;5111052;28;20169;-84
2023/05/15 05:58:21;;;;;;;80.32;37.53;;;12.10;99.90;;;;;;5131508;28;20188;-83
2023/05/15 06:00:47;;;;;;;76.57;38.45;;;12.10;99.90;;;;;;5109608;28;20684;-84
2023/05/15 06:03:13;;;;;;;77.97;40.13;;;12.10;99.90;;;;;;5107894;28;20271;-83
2023/05/15 06:05:38;;;;;;;78.45;40.13;;;12.10;99.90;;;;;;5108122;28;20187;-83
2023/05/15 06:08:05;;;;;;;87.65;42.55;;;12.10;99.90;;;;;;5125591;28;20175;-83
2023/05/15 06:10:31;;;;;;;86.55;42.35;;;12.10;99.90;;;;;;5107335;28;20273;-83
2023/05/15 06:12:57;;;;;;;90.30;42.50;;;12.10;99.90;;;;;;5106825;28;20211;-83
2023/05/15 06:15:22;;;;;;;103.85;45.28;;;12.10;99.90;;;;;;5107433;28;20317;-83
2023/05/15 06:17:48;;;;;;;88.25;43.63;;;12.20;99.90;;;;;;5122257;28;20313;-83
2023/05/15 06:20:14;;;;;;;89.80;42.58;;;12.20;99.90;;;;;;5101118;28;20203;-83
2023/05/15 06:22:40;;;;;;;90.55;42.17;;;12.20;99.90;;;;;;5100951;28;20184;-83
2023/05/15 06:25:06;;;;;;;89.15;41.95;;;12.20;99.90;;;;;;5118221;28;20278;-83
2023/05/15 06:27:32;;;;;;;83.03;41.83;;;12.30;99.90;;;;;;5100228;28;20177;-83
2023/05/15 06:29:58;;;;;;;91.70;42.38;;;12.40;99.90;;;;;;5100322;28;20173;-84
2023/05/15 06:32:24;;;;;;;88.07;42.47;;;12.50;99.90;;;;;;5101535;28;20216;-83
2023/05/15 06:34:50;;;;;;;87.65;43.00;;;12.60;99.90;;;;;;5100710;28;20644;-83
2023/05/15 06:37:16;;;;;;;76.95;42.47;;;12.60;99.90;;;;;;5100853;28;20180;-83
2023/05/15 06:39:41;;;;;;;84.68;42.25;;;12.70;99.90;;;;;;5100609;28;20172;-83
2023/05/15 06:42:07;;;;;;;77.15;40.15;;;12.70;99.90;;;;;;5100937;28;20189;-83
2023/05/15 06:44:34;;;;;;;70.50;39.75;;;12.90;99.90;;;;;;5100351;28;20672;-83
2023/05/15 06:47:00;;;;;;;71.63;40.10;;;12.90;99.90;;;;;;5100838;28;20184;-81
2023/05/15 06:49:27;;;;;;;68.90;37.28;;;12.90;99.90;;;;;;5099541;28;20172;-85
2023/05/15 06:51:53;;;;;;;69.30;38.70;;;12.90;99.90;;;;;;5098911;28;20201;-85
2023/05/15 06:54:20;;;;;;;74.05;39.83;;;13.00;99.90;;;;;;5117671;28;20682;-85
2023/05/15 06:56:46;;;;;;;67.57;36.60;;;13.10;99.90;;;;;;5117206;28;20173;-85
2023/05/15 06:59:12;;;;;;;69.78;39.70;;;13.20;99.90;;;;;;5099263;28;20666;-85
2023/05/15 07:01:38;;;;;;;79.15;41.08;;;13.30;99.90;;;;;;5117334;28;20283;-85
2023/05/15 07:04:04;;;;;;;75.13;39.90;;;13.20;99.90;;;;;;5099295;28;20206;-85
2023/05/15 07:06:32;;;;;;;66.55;38.70;;;13.20;99.90;;;;;;5098941;28;20184;-85
2023/05/15 07:08:58;;;;;;;66.80;38.40;;;13.20;99.90;;;;;;5097866;28;20165;-85
2023/05/15 07:11:24;;;;;;;66.15;40.20;;;13.30;99.90;;;;;;5098725;28;20728;-85
2023/05/15 07:13:52;;;;;;;64.65;38.08;;;13.10;99.90;;;;;;5117177;28;20224;-85
2023/05/15 07:16:20;;;;;;;66.10;37.92;;;13.20;99.90;;;;;;5116867;28;20641;-85
2023/05/15 07:18:46;;;;;;;65.70;38.95;;;13.30;99.90;;;;;;5116514;28;20225;-85
2023/05/15 07:21:12;;;;;;;62.25;37.45;;;13.40;99.90;;;;;;5098876;28;20196;-85
2023/05/15 07:23:37;;;;;;;66.00;39.20;;;13.60;99.90;;;;;;5117166;28;20204;-85
2023/05/15 07:26:03;;;;;;;64.90;38.15;;;13.80;99.90;;;;;;5098724;28;20317;-85
2023/05/15 07:28:29;;;;;;;64.97;38.10;;;13.90;99.90;;;;;;5116845;28;20173;-85
2023/05/15 07:30:54;;;;;;;64.18;38.70;;;14.00;99.90;;;;;;5118109;28;20193;-85
2023/05/15 07:33:20;;;;;;;60.28;36.97;;;14.10;99.90;;;;;;5117249;28;20633;-85
2023/05/15 07:35:51;;;;;;;66.43;39.08;;;14.10;99.90;;;;;;5118276;28;20255;-85
2023/05/15 07:38:17;;;;;;;59.47;36.78;;;14.30;99.90;;;;;;5098976;28;20168;-85
2023/05/15 07:40:43;;;;;;;61.92;36.40;;;14.40;99.90;;;;;;5098225;28;20196;-85
2023/05/15 07:43:14;;;;;;;64.30;37.63;;;14.40;99.90;;;;;;5098552;28;20208;-85
2023/05/15 07:45:58;;;;;;;53.45;35.95;;;14.40;99.90;;;;;;5098195;28;20176;-85
2023/05/15 07:48:24;;;;;;;56.53;35.00;;;14.50;99.90;;;;;;5098197;28;20218;-85
2023/05/15 07:51:00;;;;;;;57.97;37.10;;;14.60;99.90;;;;;;5098231;28;20605;-85
2023/05/15 07:53:54;;;;;;;57.03;37.63;;;14.80;99.90;;;;;;5097335;28;20184;-85
2023/05/15 07:56:22;;;;;;;58.20;37.88;;;14.80;99.90;;;;;;5098018;28;20184;-85
2023/05/15 07:59:36;;;;;;;;;;;;;;;;;;;;;
2023/05/15 08:02:23;;;;;;;67.13;42.13;;;14.90;99.90;;;;;;5115845;28;20210;-85
2023/05/15 08:09:03;;;;;;;70.65;44.28;;;15.10;99.90;;;;;;5116206;28;20168;-85
2023/05/15 08:12:16;;;;;;;87.60;49.47;;;15.00;99.90;;;;;;5097151;28;20207;-84
2023/05/15 08:15:25;;;;;;;75.97;45.42;;;14.90;99.90;;;;;;5097198;28;20168;-84
2023/05/15 08:21:25;;;;;;;80.53;48.50;;;15.00;99.90;;;;;;5106926;28;20208;-84
2023/05/15 08:24:33;;;;;;;86.53;49.42;;;15.30;99.90;;;;;;5116452;28;20242;-84
2023/05/15 08:27:04;;;;;;;87.35;47.88;;;15.40;99.90;;;;;;5116543;28;20233;-85
2023/05/15 08:42:57;;;;;;;87.53;48.78;;;16.60;99.90;;;;;;5116230;28;20164;-84
2023/05/15 08:45:41;;;;;;;84.60;46.42;;;16.50;99.90;;;;;;5097014;28;20161;-84
2023/05/15 08:48:40;;;;;;;90.10;49.38;;;16.30;99.90;;;;;;5096249;28;20176;-84
2023/05/15 08:54:49;;;;;;;86.95;48.65;;;16.00;99.90;;;;;;5032992;28;20202;-84
2023/05/15 08:57:18;;;;;;;87.78;50.22;;;15.80;99.90;;;;;;5032760;28;20183;-84
2023/05/15 09:00:08;;;;;;;;;;;;;;;;;;;;;
2023/05/15 09:03:05;;;;;;;79.90;46.75;;;15.90;99.90;;;;;;5033604;28;20163;-85
2023/05/15 09:05:37;;;;;;;85.30;47.97;;;16.50;99.90;;;;;;5093864;28;20184;-84
2023/05/15 09:08:26;;;;;;;77.50;45.35;;;16.60;99.90;;;;;;5096386;28;20175;-84
2023/05/15 09:11:06;;;;;;;;;;;;;;;;;;;;;
2023/05/15 09:13:59;;;;;;;66.15;40.92;;;17.30;99.90;;;;;;5115257;28;20155;-84
2023/05/15 09:19:18;;;;;;;65.40;41.45;;;17.80;1.00;;;;;;5116976;28;20190;-81
2023/05/15 09:21:44;;;;;;;61.22;39.55;;;18.00;1.00;;;;;;5097343;28;20200;-81
2023/05/15 09:24:25;;;;;;;70.07;42.13;;;18.20;1.00;;;;;;5097414;28;20219;-81
2023/05/15 09:27:07;;;;;;;72.05;42.15;;;18.20;7.50;;;;;;5116411;28;20149;-80
2023/05/15 09:29:34;;;;;;;69.95;42.83;;;18.10;1.00;;;;;;5115515;28;20180;-80
2023/05/15 09:32:08;;;;;;;63.63;42.45;;;18.20;23.70;;;;;;5099879;28;20191;-81
2023/05/15 09:34:36;;;;;;;62.25;39.83;;;18.10;8.90;;;;;;5122235;28;20179;-81
2023/05/15 09:37:04;;;;;;;55.45;36.67;;;18.10;1.00;;;;;;5123210;28;20164;-81
2023/05/15 09:39:30;;;;;;;51.33;35.03;;;18.30;11.60;;;;;;5122706;28;20247;-80
2023/05/15 09:42:07;;;;;;;45.70;31.85;;;18.40;1.00;;;;;;5123744;28;20224;-80
2023/05/15 09:44:33;;;;;;;40.88;29.38;;;18.60;1.00;;;;;;5123143;28;20187;-80
2023/05/15 09:46:59;;;;;;;40.83;30.08;;;18.80;1.00;;;;;;5104450;28;20168;-80
2023/05/15 09:49:28;;;;;;;39.05;28.35;;;19.20;1.00;;;;;;5123871;28;20167;-81
2023/05/15 09:51:57;;;;;;;41.45;28.98;;;19.20;99.90;;;;;;5123879;28;20188;-81
2023/05/15 09:54:24;;;;;;;35.30;26.17;;;19.50;4.30;;;;;;5126601;28;20161;-81
2023/05/15 09:56:49;;;;;;;40.55;27.75;;;19.10;99.90;;;;;;5127866;28;20224;-81
2023/05/15 09:59:22;;;;;;;33.00;25.40;;;19.00;99.90;;;;;;5126162;28;20249;-82
2023/05/15 10:01:51;;;;;;;34.03;26.20;;;18.80;99.90;;;;;;5106258;28;20298;-81
2023/05/15 10:04:17;;;;;;;33.72;26.67;;;18.30;1.00;;;;;;5106027;28;20223;-82
2023/05/15 10:06:45;;;;;;;33.33;25.50;;;18.20;1.00;;;;;;5105544;28;20168;-81
2023/05/15 10:09:15;;;;;;;32.63;26.15;;;18.10;1.00;;;;;;5123563;28;20645;-81
2023/05/15 10:11:43;;;;;;;33.17;25.42;;;18.30;1.00;;;;;;5105293;28;20245;-81
2023/05/15 10:14:13;;;;;;;32.55;25.08;;;18.70;1.00;;;;;;5104854;28;20263;-81
2023/05/15 10:16:40;;;;;;;30.55;23.90;;;19.20;1.00;;;;;;5104720;28;20177;-81
2023/05/15 10:19:11;;;;;;;31.42;24.63;;;19.70;1.00;;;;;;5123713;28;20176;-81
2023/05/15 10:21:39;;;;;;;31.27;23.27;;;19.60;99.90;;;;;;5104976;28;20268;-82
2023/05/15 10:24:05;;;;;;;27.70;21.13;;;19.40;99.90;;;;;;5122476;28;20208;-81
2023/05/15 10:26:39;;;;;;;29.45;21.77;;;19.20;99.90;;;;;;5123230;28;20152;-80
2023/05/15 10:29:10;;;;;;;29.10;21.45;;;18.90;1.00;;;;;;5110349;28;20164;-80
2023/05/15 10:31:36;;;;;;;27.02;20.30;;;18.80;99.90;;;;;;5105404;28;20261;-80
2023/05/15 10:34:03;;;;;;;21.50;17.65;;;19.00;1.00;;;;;;5106540;28;20215;-81
2023/05/15 10:36:33;;;;;;;22.50;17.33;;;19.00;99.90;;;;;;5123585;28;20585;-81
2023/05/15 10:39:06;;;;;;;23.10;17.27;;;18.90;99.90;;;;;;5123262;28;20208;-80
2023/05/15 10:41:35;;;;;;;25.10;16.67;;;19.20;99.90;;;;;;5106021;28;20200;-80
2023/05/15 10:44:01;;;;;;;23.33;16.35;;;19.40;1.00;;;;;;5103275;28;20645;-80
2023/05/15 10:46:30;;;;;;;22.20;15.82;;;19.60;99.90;;;;;;5100553;28;20172;-80
2023/05/15 10:48:57;;;;;;;22.60;15.93;;;19.50;28.30;;;;;;5101219;28;20207;-80
2023/05/15 10:51:35;;;;;;;21.95;16.08;;;19.50;1.00;;;;;;5119149;28;20291;-81
2023/05/15 10:54:04;;;;;;;20.67;15.90;;;19.50;1.00;;;;;;5100427;28;20227;-80
2023/05/15 10:56:31;;;;;;;22.83;15.95;;;19.30;99.90;;;;;;5100428;28;20176;-80
2023/05/15 10:59:03;;;;;;;23.52;15.43;;;19.30;1.00;;;;;;5099712;28;20259;-80
2023/05/15 11:01:30;;;;;;;17.20;14.27;;;19.30;1.00;;;;;;5100008;28;20240;-80
2023/05/15 11:04:09;;;;;;;21.42;14.95;;;19.50;1.00;;;;;;5100048;28;20208;-81
2023/05/15 11:06:37;;;;;;;21.00;14.90;;;19.70;99.90;;;;;;5118148;28;20161;-81
2023/05/15 11:09:21;;;;;;;16.98;14.50;;;19.60;1.00;;;;;;5118356;28;20176;-81
2023/05/15 11:12:01;;;;;;;20.40;13.60;;;19.80;99.90;;;;;;5100041;28;20253;-81
2023/05/15 11:14:28;;;;;;;20.63;14.73;;;20.40;99.90;;;;;;5100117;28;20168;-82
2023/05/15 11:16:56;;;;;;;17.95;13.68;;;20.30;99.90;;;;;;5100648;28;20196;-81
2023/05/15 11:19:27;;;;;;;19.77;14.40;;;20.30;99.90;;;;;;5118347;28;20702;-82
2023/05/15 11:21:57;;;;;;;22.85;16.25;;;20.40;99.90;;;;;;5100850;28;20657;-82
2023/05/15 11:24:46;;;;;;;20.77;16.17;;;20.10;99.90;;;;;;5100415;28;20238;-82
2023/05/15 11:27:15;;;;;;;21.25;16.38;;;20.10;99.90;;;;;;5100327;28;20172;-82
2023/05/15 11:30:03;;;;;;;21.75;16.25;;;20.20;1.00;;;;;;5100226;28;20180;-82
2023/05/15 11:32:50;;;;;;;22.83;15.65;;;20.20;1.00;;;;;;5100479;28;20206;-82
2023/05/15 11:35:44;;;;;;;24.95;16.55;;;20.40;99.90;;;;;;5100699;28;20165;-81
2023/05/15 11:38:10;;;;;;;20.23;15.60;;;20.30;99.90;;;;;;5118561;28;20198;-80
2023/05/15 11:40:57;;;;;;;20.20;15.48;;;20.10;1.00;;;;;;5118375;28;20195;-80
2023/05/15 11:43:31;;;;;;;21.60;15.55;;;19.90;99.90;;;;;;5100026;28;20227;-81
2023/05/15 11:46:05;;;;;;;19.88;15.13;;;19.80;99.90;;;;;;5118302;28;20164;-80
2023/05/15 11:48:38;;;;;;;17.40;14.55;;;19.60;99.90;;;;;;5100527;28;20171;-80
2023/05/15 11:51:04;;;;;;;22.52;17.38;;;19.60;1.00;;;;;;5101363;28;20211;-81
2023/05/15 11:53:32;;;;;;;23.92;18.05;;;19.70;1.00;;;;;;5100217;28;20185;-80
2023/05/15 11:55:58;;;;;;;19.35;14.52;;;19.70;1.00;;;;;;5098686;28;20176;-81
2023/05/15 11:58:25;;;;;;;20.27;13.80;;;19.60;25.80;;;;;;5122126;28;20183;-81
2023/05/15 12:00:52;;;;;;;20.70;13.75;;;19.70;1.00;;;;;;5120169;28;20192;-81
2023/05/15 12:03:30;;;;;;;15.25;12.63;;;19.90;99.90;;;;;;5100257;28;20200;-81
2023/05/15 12:05:56;;;;;;;16.80;13.60;;;19.50;99.90;;;;;;5118663;28;20161;-81
2023/05/15 12:08:22;;;;;;;20.08;13.80;;;19.50;1.00;;;;;;5118639;28;20653;-81
2023/05/15 12:10:49;;;;;;;19.67;13.15;;;19.70;1.00;;;;;;5119282;28;20304;-81
2023/05/15 12:13:17;;;;;;;15.98;11.88;;;20.10;99.90;;;;;;5099851;28;20632;-81
2023/05/15 12:15:46;;;;;;;13.77;11.23;;;20.10;1.00;;;;;;5101532;28;20205;-80
2023/05/15 12:18:12;;;;;;;13.65;11.68;;;19.80;99.90;;;;;;5118443;28;20205;-81
2023/05/15 12:20:43;;;;;;;15.55;11.10;;;19.60;1.00;;;;;;5118267;28;20191;-81
2023/05/15 12:23:09;;;;;;;13.93;10.43;;;19.40;99.90;;;;;;5118317;28;20557;-81
2023/05/15 12:25:36;;;;;;;11.75;9.98;;;19.30;99.90;;;;;;5118494;28;20176;-80
2023/05/15 12:28:04;;;;;;;17.58;11.18;;;19.30;97.40;;;;;;5099189;28;20190;-81
2023/05/15 12:30:31;;;;;;;17.15;11.45;;;19.30;99.90;;;;;;5100106;28;20196;-81
2023/05/15 12:33:05;;;;;;;15.35;12.15;;;19.30;99.90;;;;;;5116683;28;20177;-81
2023/05/15 12:35:36;;;;;;;14.75;12.15;;;19.30;99.90;;;;;;5116981;28;20148;-81
2023/05/15 12:38:05;;;;;;;17.02;12.20;;;19.10;99.90;;;;;;5098320;28;20176;-81
2023/05/15 12:40:35;;;;;;;15.10;11.48;;;19.00;99.90;;;;;;5116902;28;20248;-81
2023/05/15 12:43:09;;;;;;;13.25;9.85;;;19.50;99.90;;;;;;5099143;28;20232;-81
2023/05/15 12:45:37;;;;;;;14.50;9.60;;;19.50;1.00;;;;;;5100465;28;20180;-81
2023/05/15 12:48:04;;;;;;;13.00;8.75;;;19.60;1.00;;;;;;5122629;28;20289;-81
2023/05/15 12:50:32;;;;;;;11.90;8.05;;;19.90;1.00;;;;;;5116601;28;20219;-80
2023/05/15 12:53:02;;;;;;;14.68;8.32;;;20.20;6.70;;;;;;5098976;28;20173;-81
2023/05/15 12:55:35;;;;;;;11.18;8.20;;;20.60;99.90;;;;;;5099684;28;20193;-81
2023/05/15 12:58:07;;;;;;;11.88;8.35;;;20.60;99.90;;;;;;5099234;28;20175;-81
2023/05/15 13:00:38;;;;;;;11.52;8.25;;;20.30;1.00;;;;;;5118102;28;20248;-80
2023/05/15 13:03:05;;;;;;;9.68;7.32;;;20.10;8.00;;;;;;5099634;28;20188;-81
2023/05/15 13:05:31;;;;;;;12.45;8.68;;;19.90;99.90;;;;;;5116566;28;20221;-81
2023/05/15 13:07:59;;;;;;;11.68;7.57;;;19.70;99.90;;;;;;5096421;28;20258;-81
2023/05/15 13:10:25;;;;;;;11.73;7.18;;;19.80;1.00;;;;;;5115590;28;20188;-81
2023/05/15 13:12:53;;;;;;;12.07;7.13;;;19.80;1.00;;;;;;5116147;28;20535;-80
2023/05/15 13:15:27;;;;;;;10.98;7.07;;;19.90;99.90;;;;;;5097179;28;20172;-80
2023/05/15 13:18:14;;;;;;;8.68;6.88;;;20.30;99.90;;;;;;5107348;28;20172;-80
2023/05/15 13:20:42;;;;;;;9.32;6.80;;;20.80;99.90;;;;;;5114950;28;20338;-81
2023/05/15 13:23:09;;;;;;;9.98;7.10;;;21.00;99.90;;;;;;5098796;28;20196;-81
2023/05/15 13:25:35;;;;;;;9.57;6.45;;;20.90;20.60;;;;;;5119422;28;20184;-81
2023/05/15 13:28:04;;;;;;;10.38;6.28;;;20.90;1.00;;;;;;5099600;28;20576;-80